createdAt,value
2019-03-22T00:00:30.395Z,99.90
2019-03-22T00:01:36.693Z,99.90
2019-03-22T00:02:43.085Z,99.90
2019-03-22T00:03:49.715Z,99.90
2019-03-22T00:04:56.793Z,99.90
2019-03-22T00:06:03.362Z,99.90
2019-03-22T00:07:10.166Z,99.90
2019-03-22T00:08:16.803Z,99.90
2019-03-22T00:09:23.386Z,99.90
2019-03-22T00:10:29.985Z,99.90
2019-03-22T00:11:36.575Z,99.90
2019-03-22T00:12:42.886Z,99.90
2019-03-22T00:13:49.242Z,99.90
2019-03-22T00:14:55.893Z,99.90
2019-03-22T00:16:02.698Z,99.90
2019-03-22T00:17:09.145Z,99.90
2019-03-22T00:18:15.827Z,99.90
2019-03-22T00:19:22.486Z,99.90
2019-03-22T00:20:29.246Z,99.90
2019-03-22T00:21:35.801Z,99.90
2019-03-22T00:22:43.278Z,99.90
2019-03-22T00:23:49.761Z,99.90
2019-03-22T00:24:56.071Z,99.90
2019-03-22T00:26:02.867Z,99.90
2019-03-22T00:27:16.461Z,99.90
2019-03-22T00:28:17.566Z,99.90
2019-03-22T00:29:23.998Z,99.90
2019-03-22T00:30:30.566Z,99.90
2019-03-22T00:31:37.246Z,99.90
2019-03-22T00:32:43.777Z,99.90
2019-03-22T00:33:50.407Z,99.90
2019-03-22T00:34:57.021Z,99.90
2019-03-22T00:36:03.257Z,99.90
2019-03-22T00:37:09.992Z,99.90
2019-03-22T00:38:16.575Z,99.90
2019-03-22T00:39:23.243Z,99.90
2019-03-22T00:40:29.912Z,99.90
2019-03-22T00:41:36.457Z,99.90
2019-03-22T00:42:43.190Z,99.90
2019-03-22T00:43:49.854Z,99.90
2019-03-22T00:44:56.548Z,99.90
2019-03-22T00:46:03.510Z,99.90
2019-03-22T00:47:09.965Z,99.90
2019-03-22T00:48:16.902Z,99.90
2019-03-22T00:49:23.485Z,99.90
2019-03-22T00:50:30.133Z,99.90
2019-03-22T00:51:36.623Z,99.90
2019-03-22T00:52:44.090Z,99.90
2019-03-22T00:53:50.766Z,99.90
2019-03-22T00:54:57.433Z,99.90
2019-03-22T00:56:04.004Z,99.90
2019-03-22T00:57:10.554Z,99.90
2019-03-22T00:58:17.154Z,99.90
2019-03-22T00:59:24.696Z,99.90
2019-03-22T01:00:31.174Z,99.90
2019-03-22T01:01:37.714Z,99.90
2019-03-22T01:02:44.295Z,99.90
2019-03-22T01:03:51.032Z,99.90
2019-03-22T01:04:57.665Z,99.90
2019-03-22T01:06:04.460Z,99.90
2019-03-22T01:07:10.914Z,99.90
2019-03-22T01:08:17.554Z,99.90
2019-03-22T01:09:24.046Z,99.90
2019-03-22T01:10:30.591Z,99.90
2019-03-22T01:11:37.123Z,99.90
2019-03-22T01:12:43.498Z,99.90
2019-03-22T01:13:50.015Z,99.90
2019-03-22T01:14:57.035Z,99.90
2019-03-22T01:16:03.585Z,99.90
2019-03-22T01:17:11.181Z,99.90
2019-03-22T01:18:17.777Z,99.90
2019-03-22T01:19:24.418Z,99.90
2019-03-22T01:20:31.015Z,99.90
2019-03-22T01:21:37.707Z,99.90
2019-03-22T01:22:44.204Z,99.90
2019-03-22T01:23:50.518Z,99.90
2019-03-22T01:24:57.148Z,99.90
2019-03-22T01:26:03.897Z,99.90
2019-03-22T01:27:10.517Z,99.90
2019-03-22T01:28:17.113Z,99.90
2019-03-22T01:29:23.841Z,99.90
2019-03-22T01:30:30.408Z,99.90
2019-03-22T01:31:36.986Z,99.90
2019-03-22T01:32:43.913Z,99.90
2019-03-22T01:33:50.622Z,99.90
2019-03-22T01:34:57.103Z,99.90
2019-03-22T01:36:03.773Z,99.90
2019-03-22T01:37:10.612Z,99.90
2019-03-22T01:38:18.191Z,99.90
2019-03-22T01:39:24.664Z,99.90
2019-03-22T01:40:31.413Z,99.90
2019-03-22T01:41:37.983Z,99.90
2019-03-22T01:42:44.653Z,99.90
2019-03-22T01:43:51.257Z,99.90
2019-03-22T01:44:58.056Z,99.90
2019-03-22T01:46:04.672Z,99.90
2019-03-22T01:47:11.274Z,99.90
2019-03-22T01:48:17.958Z,99.90
2019-03-22T01:49:24.698Z,99.90
2019-03-22T01:50:31.206Z,99.90
2019-03-22T01:51:37.735Z,99.90
2019-03-22T01:52:44.317Z,99.90
2019-03-22T01:53:51.872Z,99.90
2019-03-22T01:54:58.519Z,99.90
2019-03-22T01:56:05.112Z,99.90
2019-03-22T01:57:11.860Z,99.90
2019-03-22T01:58:18.373Z,99.90
2019-03-22T01:59:24.845Z,99.90
2019-03-22T02:00:31.530Z,99.90
2019-03-22T02:01:37.996Z,99.90
2019-03-22T02:02:44.695Z,99.90
2019-03-22T02:03:51.256Z,99.90
2019-03-22T02:04:57.801Z,99.90
2019-03-22T02:06:04.613Z,99.90
2019-03-22T02:07:11.256Z,99.90
2019-03-22T02:08:17.854Z,99.90
2019-03-22T02:09:24.453Z,99.90
2019-03-22T02:10:31.013Z,99.90
2019-03-22T02:11:38.722Z,99.90
2019-03-22T02:12:45.244Z,99.90
2019-03-22T02:13:52.454Z,99.90
2019-03-22T02:14:58.965Z,99.90
2019-03-22T02:16:05.537Z,99.90
2019-03-22T02:17:12.275Z,99.90
2019-03-22T02:18:18.776Z,99.90
2019-03-22T02:19:25.445Z,99.90
2019-03-22T02:20:32.218Z,99.90
2019-03-22T02:21:38.744Z,99.90
2019-03-22T02:22:45.614Z,99.90
2019-03-22T02:23:52.404Z,99.90
2019-03-22T02:24:59.062Z,99.90
2019-03-22T02:26:05.614Z,99.90
2019-03-22T02:27:12.268Z,99.90
2019-03-22T02:28:18.875Z,99.90
2019-03-22T02:29:25.330Z,99.90
2019-03-22T02:30:32.025Z,99.90
2019-03-22T02:31:38.669Z,99.90
2019-03-22T02:32:45.284Z,99.90
2019-03-22T02:33:51.804Z,99.90
2019-03-22T02:34:58.258Z,99.90
2019-03-22T02:36:04.863Z,99.90
2019-03-22T02:37:11.523Z,99.90
2019-03-22T02:38:17.969Z,99.90
2019-03-22T02:39:24.930Z,99.90
2019-03-22T02:40:31.434Z,99.90
2019-03-22T02:41:39.066Z,99.90
2019-03-22T02:42:45.579Z,99.90
2019-03-22T02:43:54.593Z,99.90
2019-03-22T02:45:00.661Z,99.90
2019-03-22T02:46:07.186Z,99.90
2019-03-22T02:47:13.794Z,99.90
2019-03-22T02:48:20.403Z,99.90
2019-03-22T02:49:26.971Z,99.90
2019-03-22T02:50:33.696Z,99.90
2019-03-22T02:51:41.349Z,99.90
2019-03-22T02:52:48.181Z,99.90
2019-03-22T02:53:54.881Z,99.90
2019-03-22T02:55:01.623Z,99.90
2019-03-22T02:56:08.557Z,99.90
2019-03-22T02:57:15.244Z,99.90
2019-03-22T02:58:21.726Z,99.90
2019-03-22T02:59:27.946Z,99.90
2019-03-22T03:00:34.909Z,99.90
2019-03-22T03:01:41.557Z,99.90
2019-03-22T03:02:48.175Z,99.90
2019-03-22T03:03:54.823Z,99.90
2019-03-22T03:05:01.422Z,99.90
2019-03-22T03:06:08.924Z,99.90
2019-03-22T03:07:15.563Z,99.90
2019-03-22T03:08:22.194Z,99.90
2019-03-22T03:09:29.048Z,99.90
2019-03-22T03:10:35.437Z,99.90
2019-03-22T03:11:41.957Z,99.90
2019-03-22T03:12:49.496Z,99.90
2019-03-22T03:13:55.988Z,99.90
2019-03-22T03:15:02.485Z,99.90
2019-03-22T03:16:10.066Z,99.90
2019-03-22T03:17:16.656Z,99.90
2019-03-22T03:18:23.242Z,99.90
2019-03-22T03:19:30.036Z,99.90
2019-03-22T03:20:36.485Z,99.90
2019-03-22T03:21:43.152Z,99.90
2019-03-22T03:22:49.510Z,99.90
2019-03-22T03:23:56.123Z,99.90
2019-03-22T03:25:02.714Z,99.90
2019-03-22T03:26:09.495Z,99.90
2019-03-22T03:27:16.084Z,99.90
2019-03-22T03:28:36.019Z,99.90
2019-03-22T03:29:31.058Z,99.90
2019-03-22T03:30:37.600Z,99.90
2019-03-22T03:31:44.526Z,99.90
2019-03-22T03:32:51.131Z,99.90
2019-03-22T03:33:57.553Z,99.90
2019-03-22T03:35:04.017Z,99.90
2019-03-22T03:36:10.586Z,99.90
2019-03-22T03:37:17.067Z,99.90
2019-03-22T03:38:23.686Z,99.90
2019-03-22T03:39:30.155Z,99.90
2019-03-22T03:40:36.863Z,99.90
2019-03-22T03:41:43.308Z,99.90
2019-03-22T03:42:49.863Z,99.90
2019-03-22T03:43:56.424Z,99.90
2019-03-22T03:45:03.055Z,99.90
2019-03-22T03:46:09.486Z,99.90
2019-03-22T03:47:16.003Z,99.90
2019-03-22T03:48:22.744Z,99.90
2019-03-22T03:49:29.407Z,99.90
2019-03-22T03:50:36.224Z,99.90
2019-03-22T03:51:42.774Z,99.90
2019-03-22T03:52:49.329Z,99.90
2019-03-22T03:53:55.859Z,99.90
2019-03-22T03:55:02.547Z,99.90
2019-03-22T03:56:09.060Z,99.90
2019-03-22T03:57:15.611Z,99.90
2019-03-22T03:58:22.301Z,99.90
2019-03-22T03:59:28.577Z,99.90
2019-03-22T04:00:35.430Z,99.90
2019-03-22T04:01:42.172Z,99.90
2019-03-22T04:02:48.935Z,99.90
2019-03-22T04:03:55.409Z,99.90
2019-03-22T04:05:01.981Z,99.90
2019-03-22T04:06:08.446Z,99.90
2019-03-22T04:07:15.118Z,99.90
2019-03-22T04:08:21.818Z,99.90
2019-03-22T04:09:28.312Z,99.90
2019-03-22T04:10:34.633Z,99.90
2019-03-22T04:11:41.246Z,99.90
2019-03-22T04:12:47.812Z,99.90
2019-03-22T04:13:54.450Z,99.90
2019-03-22T04:15:01.043Z,99.90
2019-03-22T04:16:07.581Z,99.90
2019-03-22T04:17:14.008Z,99.90
2019-03-22T04:18:20.709Z,99.90
2019-03-22T04:19:27.408Z,99.90
2019-03-22T04:20:33.917Z,99.90
2019-03-22T04:21:40.602Z,99.90
2019-03-22T04:22:46.924Z,99.90
2019-03-22T04:23:53.511Z,99.90
2019-03-22T04:25:00.517Z,99.90
2019-03-22T04:26:07.633Z,99.90
2019-03-22T04:27:14.234Z,99.90
2019-03-22T04:28:20.752Z,99.90
2019-03-22T04:29:27.249Z,99.90
2019-03-22T04:30:33.745Z,99.90
2019-03-22T04:31:40.330Z,99.90
2019-03-22T04:32:47.088Z,99.90
2019-03-22T04:33:53.679Z,99.90
2019-03-22T04:34:59.909Z,99.90
2019-03-22T04:36:06.626Z,99.90
2019-03-22T04:37:13.445Z,99.90
2019-03-22T04:38:19.946Z,99.90
2019-03-22T04:39:26.558Z,99.90
2019-03-22T04:40:33.169Z,99.90
2019-03-22T04:41:39.858Z,99.90
2019-03-22T04:42:46.477Z,99.90
2019-03-22T04:43:53.118Z,99.90
2019-03-22T04:44:59.995Z,99.90
2019-03-22T04:46:07.476Z,99.90
2019-03-22T04:47:18.004Z,99.90
2019-03-22T04:48:28.646Z,99.90
2019-03-22T04:49:36.927Z,99.90
2019-03-22T04:50:45.068Z,99.90
2019-03-22T04:51:52.744Z,99.90
2019-03-22T04:53:00.533Z,99.90
2019-03-22T04:54:08.530Z,99.90
2019-03-22T04:55:16.227Z,99.90
2019-03-22T04:56:24.533Z,99.90
2019-03-22T04:57:31.915Z,99.90
2019-03-22T04:58:40.435Z,99.90
2019-03-22T04:59:48.875Z,99.90
2019-03-22T05:00:58.057Z,99.90
2019-03-22T05:02:07.449Z,99.90
2019-03-22T05:03:14.611Z,99.90
2019-03-22T05:04:22.936Z,99.90
2019-03-22T05:05:29.395Z,99.90
2019-03-22T05:06:37.452Z,99.90
2019-03-22T05:07:45.247Z,99.90
2019-03-22T05:08:53.370Z,99.90
2019-03-22T05:10:00.454Z,99.90
2019-03-22T05:11:11.086Z,99.90
2019-03-22T05:12:20.540Z,99.90
2019-03-22T05:13:27.732Z,99.90
2019-03-22T05:14:36.876Z,99.90
2019-03-22T05:15:44.153Z,99.90
2019-03-22T05:16:52.829Z,99.90
2019-03-22T05:18:00.383Z,99.90
2019-03-22T05:19:09.515Z,99.90
2019-03-22T05:20:17.579Z,99.90
2019-03-22T05:21:27.655Z,99.90
2019-03-22T05:22:36.430Z,99.90
2019-03-22T05:23:44.674Z,99.90
2019-03-22T05:24:51.863Z,99.90
2019-03-22T05:26:00.405Z,99.90
2019-03-22T05:27:07.576Z,99.90
2019-03-22T05:28:14.794Z,99.90
2019-03-22T05:29:30.404Z,99.90
2019-03-22T05:31:22.094Z,99.90
2019-03-22T05:32:28.843Z,99.90
2019-03-22T05:33:35.416Z,99.90
2019-03-22T05:34:41.995Z,99.90
2019-03-22T05:35:48.474Z,99.90
2019-03-22T05:36:55.034Z,99.90
2019-03-22T05:38:02.417Z,99.90
2019-03-22T05:39:10.425Z,99.90
2019-03-22T05:40:17.056Z,99.90
2019-03-22T05:41:23.828Z,99.90
2019-03-22T05:42:30.417Z,99.90
2019-03-22T05:43:37.087Z,99.90
2019-03-22T05:44:43.596Z,99.90
2019-03-22T05:45:50.123Z,99.90
2019-03-22T05:46:56.733Z,99.90
2019-03-22T05:48:03.438Z,99.90
2019-03-22T05:49:09.924Z,99.90
2019-03-22T05:50:16.219Z,99.90
2019-03-22T05:51:22.774Z,99.90
2019-03-22T05:52:29.499Z,99.90
2019-03-22T05:53:36.068Z,99.90
2019-03-22T05:54:42.573Z,99.90
2019-03-22T05:55:49.193Z,99.90
2019-03-22T05:56:55.889Z,99.90
2019-03-22T05:58:02.604Z,99.90
2019-03-22T05:59:09.215Z,99.90
2019-03-22T06:00:17.038Z,99.90
2019-03-22T06:01:23.514Z,99.90
2019-03-22T06:02:30.114Z,99.90
2019-03-22T06:03:36.695Z,99.90
2019-03-22T06:04:43.300Z,99.90
2019-03-22T06:05:49.963Z,99.90
2019-03-22T06:06:56.473Z,99.90
2019-03-22T06:08:03.153Z,99.90
2019-03-22T06:09:10.462Z,99.90
2019-03-22T06:10:17.035Z,99.90
2019-03-22T06:11:23.694Z,99.90
2019-03-22T06:12:30.147Z,99.90
2019-03-22T06:13:36.455Z,99.90
2019-03-22T06:14:42.769Z,99.90
2019-03-22T06:15:49.467Z,99.90
2019-03-22T06:16:56.302Z,99.90
2019-03-22T06:18:02.936Z,99.90
2019-03-22T06:19:09.446Z,99.90
2019-03-22T06:20:15.889Z,99.90
2019-03-22T06:21:22.501Z,99.90
2019-03-22T06:22:29.076Z,99.90
2019-03-22T06:23:35.658Z,99.90
2019-03-22T06:24:42.434Z,99.90
2019-03-22T06:25:48.765Z,99.90
2019-03-22T06:26:55.361Z,99.90
2019-03-22T06:28:02.073Z,99.90
2019-03-22T06:29:08.617Z,99.90
2019-03-22T06:30:15.634Z,99.90
2019-03-22T06:31:22.199Z,99.90
2019-03-22T06:32:28.805Z,99.90
2019-03-22T06:33:35.493Z,99.90
2019-03-22T06:34:42.187Z,99.90
2019-03-22T06:35:48.850Z,99.90
2019-03-22T06:36:55.521Z,99.90
2019-03-22T06:38:01.811Z,99.90
2019-03-22T06:39:10.680Z,99.90
2019-03-22T06:40:17.073Z,99.90
2019-03-22T06:41:23.698Z,99.90
2019-03-22T06:42:30.023Z,99.90
2019-03-22T06:43:36.706Z,99.90
2019-03-22T06:44:43.581Z,99.90
2019-03-22T06:45:50.376Z,99.90
2019-03-22T06:46:57.923Z,99.90
2019-03-22T06:48:04.647Z,99.90
2019-03-22T06:49:11.111Z,99.90
2019-03-22T06:50:17.825Z,99.90
2019-03-22T06:51:24.402Z,99.90
2019-03-22T06:52:31.191Z,99.90
2019-03-22T06:53:37.844Z,99.90
2019-03-22T06:54:44.474Z,99.90
2019-03-22T06:55:51.133Z,99.90
2019-03-22T06:56:57.692Z,99.90
2019-03-22T06:58:04.476Z,99.90
2019-03-22T06:59:11.196Z,99.90
2019-03-22T07:00:17.577Z,99.90
2019-03-22T07:01:23.955Z,99.90
2019-03-22T07:02:30.788Z,99.90
2019-03-22T07:03:37.268Z,99.90
2019-03-22T07:04:43.967Z,99.90
2019-03-22T07:05:50.598Z,99.90
2019-03-22T07:06:57.265Z,99.90
2019-03-22T07:08:03.849Z,99.90
2019-03-22T07:09:11.361Z,99.90
2019-03-22T07:10:18.055Z,99.90
2019-03-22T07:11:24.734Z,99.90
2019-03-22T07:12:31.345Z,99.90
2019-03-22T07:13:37.725Z,99.90
2019-03-22T07:14:44.299Z,99.90
2019-03-22T07:15:50.862Z,99.90
2019-03-22T07:16:58.951Z,99.90
2019-03-22T07:18:05.776Z,99.90
2019-03-22T07:19:12.413Z,99.90
2019-03-22T07:20:20.094Z,99.90
2019-03-22T07:21:26.665Z,99.90
2019-03-22T07:22:33.287Z,99.90
2019-03-22T07:23:39.820Z,99.90
2019-03-22T07:24:46.056Z,99.90
2019-03-22T07:25:52.555Z,99.90
2019-03-22T07:26:59.111Z,99.90
2019-03-22T07:28:05.681Z,99.90
2019-03-22T07:29:12.549Z,99.90
2019-03-22T07:30:19.493Z,99.90
2019-03-22T07:31:26.372Z,99.90
2019-03-22T07:32:32.882Z,99.90
2019-03-22T07:33:39.553Z,99.90
2019-03-22T07:34:46.362Z,99.90
2019-03-22T07:35:52.983Z,99.90
2019-03-22T07:36:59.333Z,99.90
2019-03-22T07:38:06.052Z,99.90
2019-03-22T07:39:12.655Z,99.90
2019-03-22T07:40:19.339Z,99.90
2019-03-22T07:41:25.985Z,99.90
2019-03-22T07:42:32.520Z,99.90
2019-03-22T07:43:39.371Z,99.90
2019-03-22T07:44:45.920Z,99.90
2019-03-22T07:45:52.459Z,99.90
2019-03-22T07:46:58.958Z,99.90
2019-03-22T07:48:05.615Z,99.90
2019-03-22T07:49:12.181Z,99.90
2019-03-22T07:50:18.749Z,99.90
2019-03-22T07:51:25.452Z,99.90
2019-03-22T07:52:32.097Z,99.90
2019-03-22T07:53:38.804Z,99.90
2019-03-22T07:54:45.488Z,99.90
2019-03-22T07:55:52.647Z,99.90
2019-03-22T07:56:59.301Z,99.90
2019-03-22T07:58:06.822Z,99.90
2019-03-22T07:59:13.438Z,99.90
2019-03-22T08:00:30.263Z,99.90
2019-03-22T08:01:28.018Z,99.90
2019-03-22T08:02:34.774Z,99.90
2019-03-22T08:03:42.366Z,99.90
2019-03-22T08:04:49.054Z,99.90
2019-03-22T08:05:55.596Z,99.90
2019-03-22T08:07:02.257Z,99.90
2019-03-22T08:08:08.907Z,99.90
2019-03-22T08:09:15.443Z,99.90
2019-03-22T08:10:22.099Z,99.90
2019-03-22T08:11:28.616Z,99.90
2019-03-22T08:12:34.957Z,99.90
2019-03-22T08:13:41.655Z,99.90
2019-03-22T08:14:48.329Z,99.90
2019-03-22T08:15:57.446Z,99.90
2019-03-22T08:17:03.292Z,99.90
2019-03-22T08:18:09.994Z,99.90
2019-03-22T08:19:16.553Z,99.90
2019-03-22T08:20:23.155Z,99.90
2019-03-22T08:21:29.732Z,99.90
2019-03-22T08:22:36.867Z,99.90
2019-03-22T08:23:43.236Z,99.90
2019-03-22T08:24:49.869Z,99.90
2019-03-22T08:25:56.399Z,99.90
2019-03-22T08:27:03.029Z,99.90
2019-03-22T08:28:09.604Z,99.90
2019-03-22T08:29:16.420Z,99.90
2019-03-22T08:30:23.694Z,99.90
2019-03-22T08:31:30.323Z,99.90
2019-03-22T08:32:37.022Z,99.90
2019-03-22T08:33:43.634Z,99.90
2019-03-22T08:34:50.192Z,99.90
2019-03-22T08:35:56.894Z,99.90
2019-03-22T08:37:03.220Z,99.90
2019-03-22T08:38:09.888Z,99.90
2019-03-22T08:39:16.542Z,99.90
2019-03-22T08:40:23.124Z,99.90
2019-03-22T08:41:29.817Z,99.90
2019-03-22T08:42:36.538Z,99.90
2019-03-22T08:43:43.247Z,99.90
2019-03-22T08:44:49.754Z,99.90
2019-03-22T08:45:56.373Z,99.90
2019-03-22T08:47:03.262Z,99.90
2019-03-22T08:48:09.619Z,99.90
2019-03-22T08:49:16.550Z,99.90
2019-03-22T08:50:23.305Z,99.90
2019-03-22T08:51:30.149Z,99.90
2019-03-22T08:52:36.863Z,99.90
2019-03-22T08:53:55.289Z,99.90
2019-03-22T08:54:57.245Z,99.90
2019-03-22T08:56:03.710Z,99.90
2019-03-22T08:57:10.085Z,99.90
2019-03-22T08:58:18.440Z,99.90
2019-03-22T08:59:24.589Z,99.90
2019-03-22T09:00:39.022Z,99.90
2019-03-22T09:01:39.211Z,99.90
2019-03-22T09:02:45.783Z,99.90
2019-03-22T09:03:52.570Z,99.90
2019-03-22T09:04:59.617Z,99.90
2019-03-22T09:06:07.867Z,99.90
2019-03-22T09:07:14.862Z,99.90
2019-03-22T09:08:21.674Z,99.90
2019-03-22T09:09:40.735Z,99.90
2019-03-22T09:10:36.148Z,99.90
2019-03-22T09:11:42.850Z,99.90
2019-03-22T09:12:50.834Z,99.90
2019-03-22T09:13:57.439Z,99.90
2019-03-22T09:15:04.136Z,99.90
2019-03-22T09:16:10.849Z,99.90
2019-03-22T09:17:17.279Z,99.90
2019-03-22T09:18:23.905Z,99.90
2019-03-22T09:19:30.509Z,99.90
2019-03-22T09:20:37.328Z,99.90
2019-03-22T09:21:43.908Z,99.90
2019-03-22T09:22:50.627Z,99.90
2019-03-22T09:23:57.230Z,99.90
2019-03-22T09:25:03.727Z,99.90
2019-03-22T09:26:10.574Z,99.90
2019-03-22T09:27:17.144Z,99.90
2019-03-22T09:28:23.779Z,99.90
2019-03-22T09:29:30.382Z,99.90
2019-03-22T09:30:37.146Z,99.90
2019-03-22T09:31:43.765Z,99.90
2019-03-22T09:32:50.413Z,99.90
2019-03-22T09:33:57.150Z,99.90
2019-03-22T09:35:03.735Z,99.90
2019-03-22T09:36:10.473Z,99.90
2019-03-22T09:37:17.319Z,99.90
2019-03-22T09:38:23.995Z,99.90
2019-03-22T09:39:30.745Z,99.90
2019-03-22T09:40:37.418Z,99.90
2019-03-22T09:41:44.203Z,99.90
2019-03-22T09:42:52.998Z,99.90
2019-03-22T09:43:59.177Z,99.90
2019-03-22T09:45:06.197Z,99.90
2019-03-22T09:46:12.762Z,99.90
2019-03-22T09:47:19.281Z,99.90
2019-03-22T09:48:26.060Z,99.90
2019-03-22T09:49:32.662Z,99.90
2019-03-22T09:50:39.435Z,99.90
2019-03-22T09:51:46.087Z,99.90
2019-03-22T09:52:52.708Z,99.90
2019-03-22T09:53:59.398Z,99.90
2019-03-22T09:55:13.158Z,99.90
2019-03-22T09:56:15.109Z,99.90
2019-03-22T09:57:21.848Z,99.90
2019-03-22T09:58:28.608Z,99.90
2019-03-22T09:59:35.153Z,99.90
2019-03-22T10:00:41.937Z,99.90
2019-03-22T10:01:48.514Z,99.90
2019-03-22T10:02:55.143Z,99.90
2019-03-22T10:04:01.726Z,99.90
2019-03-22T10:05:08.881Z,99.90
2019-03-22T10:06:15.564Z,99.90
2019-03-22T10:07:22.260Z,99.90
2019-03-22T10:08:28.800Z,99.60
2019-03-22T10:09:35.407Z,99.30
2019-03-22T10:10:41.975Z,99.60
2019-03-22T10:11:48.593Z,99.70
2019-03-22T10:12:56.086Z,99.50
2019-03-22T10:14:03.165Z,98.80
2019-03-22T10:15:09.958Z,98.30
2019-03-22T10:16:16.624Z,97.80
2019-03-22T10:17:23.354Z,97.40
2019-03-22T10:18:29.875Z,96.90
2019-03-22T10:19:36.468Z,96.90
2019-03-22T10:20:43.289Z,96.50
2019-03-22T10:21:50.035Z,96.10
2019-03-22T10:22:56.708Z,96.10
2019-03-22T10:24:03.292Z,96.20
2019-03-22T10:25:09.996Z,96.20
2019-03-22T10:26:16.733Z,96.30
2019-03-22T10:27:23.373Z,96.10
2019-03-22T10:28:30.026Z,95.50
2019-03-22T10:29:36.927Z,95.80
2019-03-22T10:30:43.422Z,95.10
2019-03-22T10:31:50.243Z,94.40
2019-03-22T10:32:56.639Z,94.90
2019-03-22T10:34:03.288Z,94.60
2019-03-22T10:35:09.930Z,93.20
2019-03-22T10:36:17.510Z,93.20
2019-03-22T10:37:24.167Z,92.90
2019-03-22T10:38:32.059Z,91.70
2019-03-22T10:39:38.839Z,84.20
2019-03-22T10:40:45.478Z,76.50
2019-03-22T10:41:52.284Z,73.90
2019-03-22T10:42:58.871Z,74.80
2019-03-22T10:44:05.805Z,76.30
2019-03-22T10:45:12.642Z,79.00
2019-03-22T10:46:19.239Z,81.80
2019-03-22T10:47:25.912Z,83.60
2019-03-22T10:48:33.542Z,84.60
2019-03-22T10:49:41.926Z,75.20
2019-03-22T10:50:48.591Z,69.70
2019-03-22T10:51:57.468Z,59.30
2019-03-22T10:53:03.451Z,54.60
2019-03-22T10:54:10.112Z,50.10
2019-03-22T10:55:29.341Z,47.70
2019-03-22T10:56:24.999Z,52.70
2019-03-22T10:57:31.566Z,59.40
2019-03-22T10:58:38.216Z,67.90
2019-03-22T10:59:44.988Z,75.20
2019-03-22T11:00:52.557Z,79.30
2019-03-22T11:02:03.690Z,82.70
2019-03-22T11:03:08.561Z,85.40
2019-03-22T11:04:15.243Z,87.30
2019-03-22T11:05:21.677Z,88.00
2019-03-22T11:06:28.064Z,88.80
2019-03-22T11:07:34.782Z,89.10
2019-03-22T11:08:42.488Z,89.80
2019-03-22T11:09:49.132Z,90.20
2019-03-22T11:10:55.628Z,90.80
2019-03-22T11:12:11.890Z,90.60
2019-03-22T11:13:10.372Z,90.20
2019-03-22T11:14:16.922Z,85.20
2019-03-22T11:15:24.055Z,78.30
2019-03-22T11:16:31.089Z,72.20
2019-03-22T11:17:39.491Z,70.00
2019-03-22T11:18:46.107Z,72.20
2019-03-22T11:19:52.862Z,72.60
2019-03-22T11:21:05.222Z,74.60
2019-03-22T11:22:08.925Z,78.50
2019-03-22T11:23:15.505Z,79.60
2019-03-22T11:24:22.038Z,80.80
2019-03-22T11:25:28.696Z,84.20
2019-03-22T11:26:35.364Z,85.50
2019-03-22T11:27:43.145Z,85.70
2019-03-22T11:28:49.757Z,86.30
2019-03-22T11:29:56.290Z,87.60
2019-03-22T11:31:04.976Z,88.40
2019-03-22T11:32:13.108Z,89.10
2019-03-22T11:33:19.780Z,88.80
2019-03-22T11:34:26.556Z,89.70
2019-03-22T11:35:33.477Z,90.40
2019-03-22T11:36:40.279Z,90.70
2019-03-22T11:37:46.951Z,90.90
2019-03-22T11:38:53.502Z,90.90
2019-03-22T11:40:00.480Z,91.60
2019-03-22T11:41:07.288Z,91.10
2019-03-22T11:42:14.906Z,90.70
2019-03-22T11:43:21.506Z,87.00
2019-03-22T11:44:27.897Z,84.10
2019-03-22T11:45:34.797Z,83.50
2019-03-22T11:46:41.355Z,76.40
2019-03-22T11:47:48.057Z,64.10
2019-03-22T11:48:54.564Z,59.90
2019-03-22T11:50:01.438Z,63.50
2019-03-22T11:51:07.847Z,68.50
2019-03-22T11:52:14.436Z,73.30
2019-03-22T11:53:21.029Z,76.60
2019-03-22T11:54:27.766Z,78.60
2019-03-22T11:55:34.328Z,79.90
2019-03-22T11:56:41.187Z,79.10
2019-03-22T11:57:48.061Z,79.50
2019-03-22T11:58:55.090Z,80.80
2019-03-22T12:00:01.713Z,80.20
2019-03-22T12:01:08.324Z,81.10
2019-03-22T12:02:22.179Z,81.60
2019-03-22T12:03:23.565Z,81.40
2019-03-22T12:04:29.860Z,81.90
2019-03-22T12:05:40.333Z,82.60
2019-03-22T12:06:44.681Z,83.20
2019-03-22T12:07:51.382Z,82.90
2019-03-22T12:08:58.136Z,83.30
2019-03-22T12:10:05.263Z,83.50
2019-03-22T12:11:11.846Z,84.00
2019-03-22T12:12:18.526Z,83.40
2019-03-22T12:13:25.117Z,83.50
2019-03-22T12:14:31.499Z,83.40
2019-03-22T12:15:37.859Z,83.00
2019-03-22T12:16:45.617Z,82.50
2019-03-22T12:17:52.201Z,82.00
2019-03-22T12:18:59.825Z,82.10
2019-03-22T12:20:08.330Z,81.90
2019-03-22T12:21:15.054Z,81.80
2019-03-22T12:22:22.720Z,81.90
2019-03-22T12:23:29.504Z,81.50
2019-03-22T12:24:36.319Z,81.90
2019-03-22T12:25:43.027Z,82.10
2019-03-22T12:26:50.164Z,82.10
2019-03-22T12:27:56.935Z,82.90
2019-03-22T12:29:03.807Z,82.80
2019-03-22T12:30:13.897Z,83.40
2019-03-22T12:31:20.500Z,83.40
2019-03-22T12:32:32.235Z,83.90
2019-03-22T12:33:35.286Z,83.80
2019-03-22T12:34:41.912Z,84.10
2019-03-22T12:35:48.549Z,84.20
2019-03-22T12:36:54.875Z,82.20
2019-03-22T12:38:01.312Z,80.80
2019-03-22T12:39:09.935Z,78.10
2019-03-22T12:40:17.695Z,78.00
2019-03-22T12:41:24.369Z,75.00
2019-03-22T12:42:30.880Z,72.60
2019-03-22T12:43:37.513Z,69.90
2019-03-22T12:44:44.237Z,65.70
2019-03-22T12:45:50.701Z,67.00
2019-03-22T12:46:57.354Z,69.50
2019-03-22T12:48:03.715Z,72.60
2019-03-22T12:49:10.294Z,72.80
2019-03-22T12:50:17.052Z,73.30
2019-03-22T12:51:23.732Z,73.80
2019-03-22T12:52:31.382Z,74.40
2019-03-22T12:53:40.225Z,75.20
2019-03-22T12:54:46.925Z,71.40
2019-03-22T12:55:53.533Z,63.30
2019-03-22T12:57:00.166Z,58.40
2019-03-22T12:58:06.742Z,55.80
2019-03-22T12:59:13.516Z,55.10
2019-03-22T13:00:21.423Z,54.50
2019-03-22T13:01:28.275Z,54.00
2019-03-22T13:02:41.988Z,55.70
2019-03-22T13:03:43.234Z,58.70
2019-03-22T13:04:49.750Z,62.40
2019-03-22T13:05:56.433Z,66.20
2019-03-22T13:07:02.965Z,70.30
2019-03-22T13:08:09.598Z,72.20
2019-03-22T13:09:16.206Z,72.20
2019-03-22T13:10:23.248Z,71.90
2019-03-22T13:11:29.639Z,74.80
2019-03-22T13:12:36.274Z,75.90
2019-03-22T13:13:42.846Z,76.60
2019-03-22T13:14:49.716Z,78.20
2019-03-22T13:15:56.353Z,79.20
2019-03-22T13:17:02.954Z,79.90
2019-03-22T13:18:09.544Z,81.20
2019-03-22T13:19:16.250Z,81.90
2019-03-22T13:20:24.080Z,82.30
2019-03-22T13:21:30.595Z,81.70
2019-03-22T13:22:36.978Z,82.00
2019-03-22T13:23:43.702Z,79.90
2019-03-22T13:24:50.357Z,72.50
2019-03-22T13:25:57.076Z,70.80
2019-03-22T13:27:03.700Z,71.20
2019-03-22T13:28:10.467Z,73.10
2019-03-22T13:29:16.992Z,69.30
2019-03-22T13:30:34.357Z,70.10
2019-03-22T13:31:41.174Z,70.40
2019-03-22T13:32:52.143Z,71.60
2019-03-22T13:33:56.341Z,72.40
2019-03-22T13:35:03.032Z,71.40
2019-03-22T13:36:09.595Z,72.10
2019-03-22T13:37:16.304Z,73.80
2019-03-22T13:38:22.914Z,74.00
2019-03-22T13:39:29.612Z,74.80
2019-03-22T13:40:36.534Z,75.00
2019-03-22T13:41:43.101Z,75.90
2019-03-22T13:42:49.841Z,76.60
2019-03-22T13:43:56.566Z,77.40
2019-03-22T13:45:03.086Z,77.70
2019-03-22T13:46:09.885Z,79.10
2019-03-22T13:47:17.578Z,79.70
2019-03-22T13:48:24.195Z,81.10
2019-03-22T13:49:30.883Z,81.70
2019-03-22T13:50:37.831Z,82.00
2019-03-22T13:51:44.373Z,81.40
2019-03-22T13:52:50.990Z,81.90
2019-03-22T13:53:57.808Z,82.40
2019-03-22T13:55:04.842Z,82.50
2019-03-22T13:56:11.455Z,82.80
2019-03-22T13:57:17.839Z,82.80
2019-03-22T13:58:24.305Z,83.20
2019-03-22T13:59:30.917Z,82.50
2019-03-22T14:00:37.428Z,83.30
2019-03-22T14:01:45.270Z,83.50
2019-03-22T14:03:02.070Z,83.30
2019-03-22T14:04:00.376Z,80.00
2019-03-22T14:05:08.458Z,74.80
2019-03-22T14:06:15.134Z,71.00
2019-03-22T14:07:21.579Z,66.70
2019-03-22T14:08:28.146Z,62.80
2019-03-22T14:09:35.700Z,61.10
2019-03-22T14:10:42.745Z,61.20
2019-03-22T14:11:49.297Z,58.60
2019-03-22T14:12:55.832Z,57.50
2019-03-22T14:14:02.478Z,58.60
2019-03-22T14:15:09.555Z,60.20
2019-03-22T14:16:16.385Z,61.90
2019-03-22T14:17:22.926Z,60.10
2019-03-22T14:18:29.430Z,59.10
2019-03-22T14:19:36.270Z,58.40
2019-03-22T14:20:43.961Z,57.40
2019-03-22T14:21:50.717Z,58.60